Time;durP1;ratioP1;P1;durP2;ratioP2;P2;SDS_P1;SDS_P2;PMS_P1;PMS_P2;Temp;Humidity;BMP_temperature;BMP_pressure;BME280_temperature;BME280_humidity;BME280_pressure;Samples;Min_cycle;Max_cycle;Signal;HPM_P1;HPM_P2
2023/12/16 00:00:28;;;;;;;8.23;3.45;;;;;;;;;;4972780;28;20033;-66
2023/12/16 00:02:53;;;;;;;9.57;3.78;;;;;;;;;;4971527;28;20873;-66
2023/12/16 00:05:18;;;;;;;9.17;3.60;;;;;;;;;;4988807;28;20088;-66
2023/12/16 00:07:44;;;;;;;8.50;3.80;;;;;;;;;;4978734;28;20290;-66
2023/12/16 00:10:09;;;;;;;11.70;4.30;;;;;;;;;;4985584;28;20025;-66
2023/12/16 00:12:34;;;;;;;13.25;3.97;;;;;;;;;;4983860;28;20857;-67
2023/12/16 00:15:00;;;;;;;12.25;3.30;;;;;;;;;;4973432;28;20137;-66
2023/12/16 00:17:25;;;;;;;9.53;3.50;;;;;;;;;;4972035;28;20140;-68
2023/12/16 00:19:50;;;;;;;11.50;3.03;;;;;;;;;;4971835;28;20304;-66
2023/12/16 00:22:15;;;;;;;8.60;3.30;;;;;;;;;;4970639;28;20300;-66
2023/12/16 00:24:41;;;;;;;9.10;2.55;;;;;;;;;;4971033;28;20029;-66
2023/12/16 00:27:06;;;;;;;6.32;2.58;;;;;;;;;;4972820;28;20133;-66
2023/12/16 00:29:31;;;;;;;7.43;2.95;;;;;;;;;;4981193;28;20902;-66
2023/12/16 00:31:57;;;;;;;6.28;2.22;;;;;;;;;;4978872;28;20132;-66
2023/12/16 00:34:22;;;;;;;8.10;2.60;;;;;;;;;;4974457;28;20809;-66
2023/12/16 00:36:48;;;;;;;6.10;2.40;;;;;;;;;;4979619;28;21038;-66
2023/12/16 00:39:13;;;;;;;6.65;2.47;;;;;;;;;;4987191;28;20091;-66
2023/12/16 00:41:39;;;;;;;5.25;2.05;;;;;;;;;;4970824;28;20032;-66
2023/12/16 00:44:04;;;;;;;6.80;2.40;;;;;;;;;;4983715;28;20113;-66
2023/12/16 00:46:31;;;;;;;5.40;2.33;;;;;;;;;;4971194;28;20828;-66
2023/12/16 00:48:56;;;;;;;7.18;2.95;;;;;;;;;;4970439;28;20022;-66
2023/12/16 00:51:21;;;;;;;5.55;2.22;;;;;;;;;;4976697;28;20040;-67
2023/12/16 00:53:47;;;;;;;7.15;2.45;;;;;;;;;;4976624;28;20041;-66
2023/12/16 00:56:12;;;;;;;6.95;2.55;;;;;;;;;;4976555;28;20770;-66
2023/12/16 00:58:37;;;;;;;4.95;2.05;;;;;;;;;;4970946;28;20800;-67
2023/12/16 01:01:02;;;;;;;6.30;2.70;;;;;;;;;;4981086;28;20026;-66
2023/12/16 01:03:28;;;;;;;5.63;2.05;;;;;;;;;;4974801;28;20096;-66
2023/12/16 01:05:53;;;;;;;7.10;2.43;;;;;;;;;;4971269;28;20025;-66
2023/12/16 01:08:18;;;;;;;6.05;2.35;;;;;;;;;;4970346;28;20316;-67
2023/12/16 01:10:44;;;;;;;6.87;2.90;;;;;;;;;;4971562;28;20894;-67
2023/12/16 01:13:09;;;;;;;6.47;2.63;;;;;;;;;;4970955;28;21120;-68
2023/12/16 01:15:35;;;;;;;5.55;2.33;;;;;;;;;;4971755;28;20026;-67
2023/12/16 01:18:01;;;;;;;5.80;2.53;;;;;;;;;;4978389;28;20029;-67
2023/12/16 01:20:26;;;;;;;6.45;2.38;;;;;;;;;;4978002;28;20896;-67
2023/12/16 01:22:51;;;;;;;6.43;2.53;;;;;;;;;;4986811;28;20028;-67
2023/12/16 01:25:16;;;;;;;10.45;3.13;;;;;;;;;;4988591;28;20034;-67
2023/12/16 01:27:42;;;;;;;8.63;2.50;;;;;;;;;;4981087;28;20049;-66
2023/12/16 01:30:07;;;;;;;6.28;2.58;;;;;;;;;;4986484;28;20029;-67
2023/12/16 01:32:33;;;;;;;7.97;2.25;;;;;;;;;;4973023;28;20022;-67
2023/12/16 01:34:58;;;;;;;8.77;2.70;;;;;;;;;;4972665;28;20892;-66
2023/12/16 01:37:26;;;;;;;5.60;2.55;;;;;;;;;;4983744;28;20021;-66
2023/12/16 01:39:51;;;;;;;8.82;2.83;;;;;;;;;;4969649;28;20022;-67
2023/12/16 01:42:16;;;;;;;8.80;2.33;;;;;;;;;;4972226;28;20042;-66
2023/12/16 01:44:41;;;;;;;9.70;2.60;;;;;;;;;;4977223;28;20866;-67
2023/12/16 01:47:07;;;;;;;8.40;2.40;;;;;;;;;;4981234;28;21270;-67
2023/12/16 01:49:32;;;;;;;7.47;2.65;;;;;;;;;;4984028;28;21075;-67
2023/12/16 01:51:58;;;;;;;7.18;1.90;;;;;;;;;;4977690;28;20442;-67
2023/12/16 01:54:23;;;;;;;4.75;2.42;;;;;;;;;;4973873;28;20025;-67
2023/12/16 01:56:58;;;;;;;6.70;3.15;;;;;;;;;;4973586;28;20043;-67
2023/12/16 01:59:25;;;;;;;10.90;3.08;;;;;;;;;;4982043;28;20037;-67
2023/12/16 02:01:50;;;;;;;11.68;3.17;;;;;;;;;;4977298;28;20121;-67
2023/12/16 02:04:16;;;;;;;4.78;2.55;;;;;;;;;;4973551;28;20785;-67
2023/12/16 02:06:41;;;;;;;5.72;2.45;;;;;;;;;;4984241;28;20038;-67
2023/12/16 02:09:06;;;;;;;6.75;3.22;;;;;;;;;;4974383;28;20044;-67
2023/12/16 02:11:31;;;;;;;9.50;3.67;;;;;;;;;;4974810;28;20040;-67
2023/12/16 02:13:57;;;;;;;5.38;2.83;;;;;;;;;;4980606;28;20276;-67
2023/12/16 02:16:22;;;;;;;9.40;2.70;;;;;;;;;;4978772;28;20942;-67
2023/12/16 02:18:48;;;;;;;5.93;3.13;;;;;;;;;;4984669;28;20031;-67
2023/12/16 02:21:13;;;;;;;5.30;2.92;;;;;;;;;;4976059;28;20136;-67
2023/12/16 02:23:39;;;;;;;7.35;3.17;;;;;;;;;;4972964;28;20169;-67
2023/12/16 02:26:04;;;;;;;7.53;3.03;;;;;;;;;;4972923;28;20076;-67
2023/12/16 02:28:30;;;;;;;7.23;2.63;;;;;;;;;;4985240;28;20021;-67
2023/12/16 02:30:55;;;;;;;7.10;3.20;;;;;;;;;;4974201;28;20280;-67
2023/12/16 02:33:21;;;;;;;10.70;3.72;;;;;;;;;;4975254;28;20771;-67
2023/12/16 02:35:46;;;;;;;7.65;3.42;;;;;;;;;;4985890;28;20053;-67
2023/12/16 02:38:11;;;;;;;11.33;3.77;;;;;;;;;;4973231;28;20853;-67
2023/12/16 02:40:41;;;;;;;6.75;3.28;;;;;;;;;;4973951;28;21305;-67
2023/12/16 02:43:07;;;;;;;6.93;3.67;;;;;;;;;;4977316;28;20400;-67
2023/12/16 02:45:33;;;;;;;8.07;3.38;;;;;;;;;;4973273;28;20494;-67
2023/12/16 02:47:58;;;;;;;9.73;3.90;;;;;;;;;;4972425;28;20014;-67
2023/12/16 02:50:23;;;;;;;12.68;3.20;;;;;;;;;;4979198;28;20026;-67
2023/12/16 02:52:48;;;;;;;7.73;3.40;;;;;;;;;;4988460;28;21064;-67
2023/12/16 02:55:14;;;;;;;9.73;3.33;;;;;;;;;;4982003;28;21216;-67
2023/12/16 02:57:39;;;;;;;9.98;3.55;;;;;;;;;;4983163;28;20022;-67
2023/12/16 03:00:04;;;;;;;8.77;3.50;;;;;;;;;;4985989;28;20123;-67
2023/12/16 03:02:30;;;;;;;6.15;3.35;;;;;;;;;;4977789;28;20137;-67
2023/12/16 03:04:55;;;;;;;5.95;2.88;;;;;;;;;;4976742;28;20042;-68
2023/12/16 03:07:20;;;;;;;7.45;3.28;;;;;;;;;;4986153;28;20141;-67
2023/12/16 03:09:45;;;;;;;8.13;2.90;;;;;;;;;;4973682;28;20884;-67
2023/12/16 03:12:11;;;;;;;12.35;3.15;;;;;;;;;;4974846;28;20428;-67
2023/12/16 03:14:39;;;;;;;6.40;2.78;;;;;;;;;;4975234;28;20041;-67
2023/12/16 03:17:04;;;;;;;8.60;3.13;;;;;;;;;;4976064;28;20028;-67
2023/12/16 03:19:31;;;;;;;10.98;3.60;;;;;;;;;;4973667;28;20026;-67
2023/12/16 03:21:56;;;;;;;8.60;3.08;;;;;;;;;;4975309;28;20030;-67
2023/12/16 03:24:21;;;;;;;3.63;1.83;;;;;;;;;;4974498;28;20021;-67
2023/12/16 03:26:46;;;;;;;10.93;3.10;;;;;;;;;;4975266;28;20933;-67
2023/12/16 03:29:12;;;;;;;8.03;2.40;;;;;;;;;;4973397;28;20060;-67
2023/12/16 03:31:37;;;;;;;9.40;2.67;;;;;;;;;;4958131;28;20267;-66
2023/12/16 03:34:02;;;;;;;6.82;2.40;;;;;;;;;;4978286;28;20022;-67
2023/12/16 03:36:28;;;;;;;14.32;3.55;;;;;;;;;;4977188;28;20034;-67
2023/12/16 03:38:53;;;;;;;6.05;2.45;;;;;;;;;;4977668;28;20282;-67
2023/12/16 03:41:19;;;;;;;8.23;2.85;;;;;;;;;;4988070;28;20855;-67
2023/12/16 03:43:44;;;;;;;9.73;3.03;;;;;;;;;;4972045;28;20800;-67
2023/12/16 03:46:09;;;;;;;6.90;3.00;;;;;;;;;;4973839;28;20132;-67
2023/12/16 03:48:35;;;;;;;5.63;3.10;;;;;;;;;;4972958;28;20900;-66
2023/12/16 03:51:01;;;;;;;8.05;2.70;;;;;;;;;;4981224;28;20026;-67
2023/12/16 03:53:26;;;;;;;6.65;3.03;;;;;;;;;;4977532;28;20875;-67
2023/12/16 03:55:52;;;;;;;9.40;3.50;;;;;;;;;;4987648;28;20122;-67
2023/12/16 03:58:18;;;;;;;4.82;1.88;;;;;;;;;;4975618;28;20061;-67
2023/12/16 04:00:43;;;;;;;5.93;2.40;;;;;;;;;;4972739;28;20032;-67
2023/12/16 04:03:08;;;;;;;9.67;2.07;;;;;;;;;;4971625;28;20928;-67
2023/12/16 04:05:34;;;;;;;6.97;2.60;;;;;;;;;;4970443;28;21282;-66
2023/12/16 04:07:59;;;;;;;4.68;2.15;;;;;;;;;;4974371;28;20049;-66
2023/12/16 04:10:24;;;;;;;7.85;2.53;;;;;;;;;;4976091;28;20092;-66
2023/12/16 04:12:50;;;;;;;5.97;2.05;;;;;;;;;;4974630;28;20861;-65
2023/12/16 04:15:15;;;;;;;6.63;3.13;;;;;;;;;;4953853;28;20021;-66
2023/12/16 04:17:40;;;;;;;7.40;2.58;;;;;;;;;;4971088;28;20068;-65
2023/12/16 04:20:06;;;;;;;12.53;2.97;;;;;;;;;;4975860;28;20036;-66
2023/12/16 04:22:31;;;;;;;7.35;3.10;;;;;;;;;;4975086;28;20272;-66
2023/12/16 04:25:00;;;;;;;8.37;3.17;;;;;;;;;;4972266;28;20924;-66
2023/12/16 04:27:26;;;;;;;7.05;2.90;;;;;;;;;;4979633;28;20284;-66
2023/12/16 04:29:51;;;;;;;10.93;3.47;;;;;;;;;;4975352;28;20053;-66
2023/12/16 04:32:16;;;;;;;9.70;3.00;;;;;;;;;;4971256;28;20117;-66
2023/12/16 04:34:41;;;;;;;8.30;3.05;;;;;;;;;;4971699;28;20154;-67
2023/12/16 04:37:07;;;;;;;9.63;3.33;;;;;;;;;;4975026;28;20029;-67
2023/12/16 04:39:32;;;;;;;8.30;2.75;;;;;;;;;;4972345;28;20029;-67
2023/12/16 04:41:57;;;;;;;10.68;3.55;;;;;;;;;;4973785;28;20041;-67
2023/12/16 04:44:23;;;;;;;8.35;3.58;;;;;;;;;;4971409;28;20026;-67
2023/12/16 04:46:48;;;;;;;7.70;3.53;;;;;;;;;;4979722;28;20013;-67
2023/12/16 04:49:13;;;;;;;5.70;2.53;;;;;;;;;;4980510;28;20276;-67
2023/12/16 04:51:38;;;;;;;7.45;3.10;;;;;;;;;;4971341;28;20025;-67
2023/12/16 04:54:04;;;;;;;8.83;3.53;;;;;;;;;;4976537;28;20022;-68
2023/12/16 04:56:29;;;;;;;7.93;3.47;;;;;;;;;;4971587;28;20343;-67
2023/12/16 04:58:54;;;;;;;7.65;2.90;;;;;;;;;;4971970;28;20033;-67
2023/12/16 05:01:19;;;;;;;5.45;2.30;;;;;;;;;;4976847;28;20037;-67
2023/12/16 05:03:45;;;;;;;7.25;2.63;;;;;;;;;;4977796;28;20014;-67
2023/12/16 05:06:10;;;;;;;9.65;3.08;;;;;;;;;;4981633;28;20026;-68
2023/12/16 05:08:35;;;;;;;10.23;3.37;;;;;;;;;;4979047;28;20033;-67
2023/12/16 05:11:00;;;;;;;8.27;2.83;;;;;;;;;;4979544;28;20269;-67
2023/12/16 05:13:26;;;;;;;10.25;3.28;;;;;;;;;;4971269;28;20919;-67
2023/12/16 05:15:51;;;;;;;9.82;2.65;;;;;;;;;;4972808;28;20026;-67
2023/12/16 05:18:17;;;;;;;9.48;3.10;;;;;;;;;;4974197;28;20532;-68
2023/12/16 05:20:42;;;;;;;6.70;3.00;;;;;;;;;;4974964;28;20022;-68
2023/12/16 05:23:07;;;;;;;15.55;3.55;;;;;;;;;;4978239;28;20864;-68
2023/12/16 05:25:32;;;;;;;9.57;2.70;;;;;;;;;;4980400;28;20899;-68
2023/12/16 05:27:58;;;;;;;11.77;2.65;;;;;;;;;;4975445;28;20021;-68
2023/12/16 05:30:24;;;;;;;6.88;2.38;;;;;;;;;;4978569;28;20943;-68
2023/12/16 05:32:49;;;;;;;11.32;2.92;;;;;;;;;;4973588;28;20080;-68
2023/12/16 05:35:15;;;;;;;11.23;3.35;;;;;;;;;;4956860;28;20026;-67
2023/12/16 05:37:40;;;;;;;6.78;3.05;;;;;;;;;;4974571;28;20033;-67
2023/12/16 05:40:06;;;;;;;12.07;3.28;;;;;;;;;;4981485;28;20030;-67
2023/12/16 05:42:31;;;;;;;6.07;2.65;;;;;;;;;;4974447;28;20875;-66
2023/12/16 05:44:56;;;;;;;11.30;3.17;;;;;;;;;;4973918;28;20146;-67
2023/12/16 05:47:22;;;;;;;5.97;2.90;;;;;;;;;;4973927;28;20029;-67
2023/12/16 05:49:47;;;;;;;5.25;2.70;;;;;;;;;;4973254;28;20034;-67
2023/12/16 05:52:12;;;;;;;11.32;3.03;;;;;;;;;;4974493;28;20738;-67
2023/12/16 05:54:37;;;;;;;6.13;2.60;;;;;;;;;;4979772;28;20140;-67
2023/12/16 05:57:03;;;;;;;8.90;3.30;;;;;;;;;;4980021;28;20029;-67
2023/12/16 05:59:28;;;;;;;10.57;2.90;;;;;;;;;;4976925;28;20029;-66
2023/12/16 06:01:54;;;;;;;6.60;2.55;;;;;;;;;;4982334;28;20042;-68
2023/12/16 06:04:19;;;;;;;9.38;2.80;;;;;;;;;;4980120;28;20065;-66
2023/12/16 06:06:44;;;;;;;5.82;2.58;;;;;;;;;;4973817;28;20030;-67
2023/12/16 06:09:09;;;;;;;10.25;2.90;;;;;;;;;;4982144;28;20010;-67
2023/12/16 06:11:34;;;;;;;8.80;2.45;;;;;;;;;;4973199;28;20869;-67
2023/12/16 06:14:00;;;;;;;7.25;2.35;;;;;;;;;;4974002;28;20081;-67
2023/12/16 06:16:25;;;;;;;9.30;2.90;;;;;;;;;;4974304;28;20087;-67
2023/12/16 06:18:51;;;;;;;9.13;2.42;;;;;;;;;;4980382;28;20293;-67
2023/12/16 06:21:16;;;;;;;6.75;2.60;;;;;;;;;;4976562;28;20025;-67
2023/12/16 06:23:41;;;;;;;8.68;2.72;;;;;;;;;;4975749;28;20044;-67
2023/12/16 06:26:06;;;;;;;8.77;2.42;;;;;;;;;;4978600;28;20040;-67
2023/12/16 06:28:32;;;;;;;7.00;2.70;;;;;;;;;;4978545;28;20032;-67
2023/12/16 06:30:57;;;;;;;5.40;2.33;;;;;;;;;;4973853;28;20331;-67
2023/12/16 06:33:22;;;;;;;7.65;2.70;;;;;;;;;;4974830;28;20281;-67
2023/12/16 06:35:48;;;;;;;8.73;2.70;;;;;;;;;;4974612;28;20014;-67
2023/12/16 06:38:13;;;;;;;7.70;2.63;;;;;;;;;;4990485;28;20300;-67
2023/12/16 06:40:38;;;;;;;8.85;2.55;;;;;;;;;;4975970;28;20017;-67
2023/12/16 06:43:04;;;;;;;5.43;2.30;;;;;;;;;;4989066;28;20900;-68
2023/12/16 06:45:31;;;;;;;13.10;2.70;;;;;;;;;;4980239;28;21210;-67
2023/12/16 06:47:56;;;;;;;8.35;2.40;;;;;;;;;;4973542;28;20054;-67
2023/12/16 06:50:22;;;;;;;5.57;2.20;;;;;;;;;;4978779;28;20869;-67
2023/12/16 06:52:47;;;;;;;9.07;2.85;;;;;;;;;;4979957;28;20424;-67
2023/12/16 06:55:12;;;;;;;10.77;4.03;;;;;;;;;;4975171;28;20863;-69
2023/12/16 06:57:37;;;;;;;12.57;3.92;;;;;;;;;;4986320;28;21066;-69
2023/12/16 07:00:03;;;;;;;9.43;3.78;;;;;;;;;;4972839;28;20918;-67
2023/12/16 07:02:28;;;;;;;14.45;4.50;;;;;;;;;;4973091;28;20915;-67
2023/12/16 07:04:53;;;;;;;12.97;3.27;;;;;;;;;;4974309;28;20950;-67
2023/12/16 07:07:19;;;;;;;9.33;4.30;;;;;;;;;;4972443;28;20287;-67
2023/12/16 07:09:44;;;;;;;7.43;3.63;;;;;;;;;;4974086;28;20287;-67
2023/12/16 07:12:09;;;;;;;10.80;4.25;;;;;;;;;;4982386;28;20033;-67
2023/12/16 07:14:34;;;;;;;7.40;3.75;;;;;;;;;;4973579;28;20040;-66
2023/12/16 07:17:00;;;;;;;12.18;3.38;;;;;;;;;;4972912;28;20769;-68
2023/12/16 07:19:25;;;;;;;10.63;3.25;;;;;;;;;;4978843;28;20037;-66
2023/12/16 07:21:50;;;;;;;8.48;3.22;;;;;;;;;;4983678;28;20824;-67
2023/12/16 07:24:16;;;;;;;8.73;2.55;;;;;;;;;;4972949;28;20937;-67
2023/12/16 07:26:41;;;;;;;9.85;3.00;;;;;;;;;;4985662;28;20141;-67
2023/12/16 07:29:06;;;;;;;6.90;2.50;;;;;;;;;;4983659;28;20039;-67
2023/12/16 07:31:31;;;;;;;9.60;2.35;;;;;;;;;;4975597;28;20284;-67
2023/12/16 07:33:57;;;;;;;7.70;3.22;;;;;;;;;;4976308;28;20017;-67
2023/12/16 07:36:22;;;;;;;8.20;2.30;;;;;;;;;;4966229;28;20068;-67
2023/12/16 07:38:47;;;;;;;10.45;2.35;;;;;;;;;;4985164;28;20061;-66
2023/12/16 07:41:12;;;;;;;10.37;2.80;;;;;;;;;;4978199;28;20057;-69
2023/12/16 07:43:38;;;;;;;6.68;1.90;;;;;;;;;;4986287;28;20672;-67
2023/12/16 07:46:04;;;;;;;7.03;2.30;;;;;;;;;;4986543;28;20072;-67
2023/12/16 07:48:29;;;;;;;7.03;1.90;;;;;;;;;;4983708;28;20862;-67
2023/12/16 07:50:55;;;;;;;8.30;2.53;;;;;;;;;;4983174;28;20044;-67
2023/12/16 07:53:21;;;;;;;9.07;1.98;;;;;;;;;;4976906;28;20033;-68
2023/12/16 07:55:47;;;;;;;8.85;2.13;;;;;;;;;;4984060;28;20022;-68
2023/12/16 07:58:14;;;;;;;9.95;2.28;;;;;;;;;;4978290;28;20033;-67
2023/12/16 08:00:39;;;;;;;6.85;2.00;;;;;;;;;;4991543;28;20525;-67
2023/12/16 08:03:04;;;;;;;8.02;1.70;;;;;;;;;;4982856;28;20029;-67
2023/12/16 08:05:29;;;;;;;5.87;2.03;;;;;;;;;;4985342;28;20946;-67
2023/12/16 08:07:54;;;;;;;5.05;1.70;;;;;;;;;;4976412;28;21184;-67
2023/12/16 08:10:20;;;;;;;5.25;1.90;;;;;;;;;;4980930;28;20021;-68
2023/12/16 08:12:45;;;;;;;5.65;2.53;;;;;;;;;;4986778;28;20021;-67
2023/12/16 08:15:10;;;;;;;9.70;2.30;;;;;;;;;;4983105;28;20045;-67
2023/12/16 08:17:37;;;;;;;6.43;2.80;;;;;;;;;;4977233;28;20036;-67
2023/12/16 08:20:02;;;;;;;5.05;1.67;;;;;;;;;;4979495;28;20881;-67
2023/12/16 08:22:28;;;;;;;12.15;1.92;;;;;;;;;;4978626;28;20060;-67
2023/12/16 08:24:53;;;;;;;9.68;2.85;;;;;;;;;;4987191;28;20033;-67
2023/12/16 08:27:18;;;;;;;6.37;2.07;;;;;;;;;;4989536;28;20037;-67
2023/12/16 08:29:46;;;;;;;9.18;2.50;;;;;;;;;;4979582;28;20279;-67
2023/12/16 08:32:12;;;;;;;7.70;2.13;;;;;;;;;;4977660;28;20017;-67
2023/12/16 08:34:37;;;;;;;8.02;2.47;;;;;;;;;;4982679;28;20099;-67
2023/12/16 08:37:02;;;;;;;9.10;2.67;;;;;;;;;;4985579;28;20484;-67
2023/12/16 08:39:28;;;;;;;6.35;2.53;;;;;;;;;;4989880;28;20353;-67
2023/12/16 08:41:53;;;;;;;5.50;2.63;;;;;;;;;;4978231;28;20049;-67
2023/12/16 08:44:18;;;;;;;7.80;2.50;;;;;;;;;;4987498;28;20753;-67
2023/12/16 08:46:43;;;;;;;11.82;2.58;;;;;;;;;;4979448;28;21222;-66
2023/12/16 08:49:08;;;;;;;6.15;1.90;;;;;;;;;;4980169;28;20856;-64
2023/12/16 08:51:34;;;;;;;5.57;2.10;;;;;;;;;;4976708;28;20134;-67
2023/12/16 08:54:00;;;;;;;7.60;1.83;;;;;;;;;;4980402;28;20040;-66
2023/12/16 08:56:25;;;;;;;5.10;2.28;;;;;;;;;;4986116;28;20072;-67
2023/12/16 08:58:50;;;;;;;7.18;1.98;;;;;;;;;;4975438;28;20868;-67
2023/12/16 09:01:16;;;;;;;5.30;2.28;;;;;;;;;;4979556;28;20032;-67
2023/12/16 09:03:44;;;;;;;7.88;2.00;;;;;;;;;;4979436;28;20053;-66
2023/12/16 09:06:09;;;;;;;9.40;1.80;;;;;;;;;;4993441;28;20036;-67
2023/12/16 09:08:35;;;;;;;3.20;1.55;;;;;;;;;;4987433;28;20022;-67
2023/12/16 09:11:00;;;;;;;5.55;1.58;;;;;;;;;;4974217;28;20037;-67
2023/12/16 09:13:25;;;;;;;3.75;1.52;;;;;;;;;;4989136;28;20124;-66
2023/12/16 09:15:51;;;;;;;6.35;1.13;;;;;;;;;;4979792;28;20030;-66
2023/12/16 09:18:16;;;;;;;5.38;1.85;;;;;;;;;;4984411;28;20064;-67
2023/12/16 09:20:41;;;;;;;6.93;1.92;;;;;;;;;;4971617;28;20147;-67
2023/12/16 09:23:08;;;;;;;7.07;1.80;;;;;;;;;;4973055;28;20040;-67
2023/12/16 09:25:34;;;;;;;6.03;1.60;;;;;;;;;;4973481;28;20276;-67
2023/12/16 09:27:59;;;;;;;5.32;1.95;;;;;;;;;;4976792;28;20038;-69
2023/12/16 09:30:24;;;;;;;4.97;2.13;;;;;;;;;;4971069;28;20137;-67
2023/12/16 09:32:49;;;;;;;7.15;2.30;;;;;;;;;;4975180;28;20276;-67
2023/12/16 09:35:14;;;;;;;5.63;1.92;;;;;;;;;;5004823;28;20041;-69
2023/12/16 09:37:40;;;;;;;8.15;1.98;;;;;;;;;;5004897;28;20507;-67
2023/12/16 09:40:05;;;;;;;6.23;1.93;;;;;;;;;;5002503;28;20041;-66
2023/12/16 09:42:32;;;;;;;9.55;2.15;;;;;;;;;;5006209;28;20410;-68
2023/12/16 09:44:57;;;;;;;5.30;1.52;;;;;;;;;;5017446;28;20092;-67
2023/12/16 09:47:23;;;;;;;8.98;1.77;;;;;;;;;;5009937;28;20034;-67
2023/12/16 09:49:49;;;;;;;6.20;1.85;;;;;;;;;;5026846;28;20017;-67
2023/12/16 09:52:14;;;;;;;9.63;2.20;;;;;;;;;;5014766;28;20014;-67
2023/12/16 09:54:39;;;;;;;6.15;1.75;;;;;;;;;;5004242;28;20065;-66
2023/12/16 09:57:05;;;;;;;5.25;1.52;;;;;;;;;;4997719;28;20823;-66
2023/12/16 09:59:31;;;;;;;8.38;1.63;;;;;;;;;;5008089;28;20030;-67
2023/12/16 10:02:02;;;;;;;8.52;2.00;;;;;;;;;;5009318;28;20469;-67
2023/12/16 10:04:28;;;;;;;9.65;2.00;;;;;;;;;;5015193;28;20029;-66
2023/12/16 10:06:53;;;;;;;6.03;1.98;;;;;;;;;;5011478;28;20034;-66
2023/12/16 10:09:19;;;;;;;7.03;1.73;;;;;;;;;;5008030;28;20034;-67
2023/12/16 10:11:49;;;;;;;4.53;1.80;;;;;;;;;;5008917;28;20800;-67
2023/12/16 10:14:14;;;;;;;5.28;2.47;;;;;;;;;;5020187;28;20285;-69
2023/12/16 10:16:39;;;;;;;7.27;2.23;;;;;;;;;;5012786;28;20148;-66
2023/12/16 10:19:05;;;;;;;10.05;2.40;;;;;;;;;;5009296;28;20295;-68
2023/12/16 10:21:31;;;;;;;4.77;1.87;;;;;;;;;;5013250;28;20044;-69
2023/12/16 10:23:58;;;;;;;8.48;2.63;;;;;;;;;;5001683;28;20284;-66
2023/12/16 10:26:23;;;;;;;10.88;2.67;;;;;;;;;;5016239;28;20096;-68
2023/12/16 10:28:50;;;;;;;4.05;2.03;;;;;;;;;;5010777;28;20026;-67
2023/12/16 10:31:17;;;;;;;6.57;1.85;;;;;;;;;;5009747;28;20017;-67
2023/12/16 10:33:42;;;;;;;7.65;1.95;;;;;;;;;;5011955;28;20072;-67
2023/12/16 10:36:08;;;;;;;7.33;2.20;;;;;;;;;;5023051;28;20030;-67
2023/12/16 10:38:33;;;;;;;9.43;2.17;;;;;;;;;;5021688;28;20311;-67
2023/12/16 10:40:58;;;;;;;6.63;2.05;;;;;;;;;;5023526;28;20026;-67
2023/12/16 10:43:24;;;;;;;5.80;1.63;;;;;;;;;;5024796;28;20526;-67
2023/12/16 10:45:50;;;;;;;5.03;1.95;;;;;;;;;;5011181;28;20068;-67
2023/12/16 10:48:16;;;;;;;8.40;1.90;;;;;;;;;;5005691;28;20033;-67
2023/12/16 10:50:46;;;;;;;11.40;2.65;;;;;;;;;;5010111;28;20397;-68
2023/12/16 10:53:32;;;;;;;5.05;1.40;;;;;;;;;;5007413;28;20084;-67
2023/12/16 10:55:59;;;;;;;5.68;2.33;;;;;;;;;;5020098;28;20045;-67
2023/12/16 10:58:25;;;;;;;9.82;2.40;;;;;;;;;;4990210;28;20029;-67
2023/12/16 11:00:51;;;;;;;7.95;2.15;;;;;;;;;;5009871;28;20120;-66
2023/12/16 11:03:19;;;;;;;10.57;2.28;;;;;;;;;;5013020;28;20029;-66
2023/12/16 11:05:48;;;;;;;6.00;1.90;;;;;;;;;;5015481;28;20104;-67
2023/12/16 11:08:14;;;;;;;6.90;1.83;;;;;;;;;;5014489;28;20553;-67
2023/12/16 11:10:40;;;;;;;5.97;1.98;;;;;;;;;;5011372;28;20018;-67
2023/12/16 11:13:05;;;;;;;3.67;1.40;;;;;;;;;;5012270;28;20022;-67
2023/12/16 11:15:31;;;;;;;10.88;2.33;;;;;;;;;;5007941;28;20285;-67
2023/12/16 11:18:07;;;;;;;7.40;2.35;;;;;;;;;;5020866;28;20878;-67
2023/12/16 11:20:39;;;;;;;7.60;1.85;;;;;;;;;;5008803;28;20042;-67
2023/12/16 11:23:05;;;;;;;6.20;2.20;;;;;;;;;;5017654;28;20441;-67
2023/12/16 11:25:33;;;;;;;7.53;2.83;;;;;;;;;;5005190;28;20076;-67
2023/12/16 11:27:58;;;;;;;8.38;2.50;;;;;;;;;;5004810;28;20488;-67
2023/12/16 11:30:24;;;;;;;6.90;2.42;;;;;;;;;;5007137;28;20032;-68
2023/12/16 11:32:53;;;;;;;4.97;2.10;;;;;;;;;;5008482;28;20091;-67
2023/12/16 11:35:37;;;;;;;9.75;2.38;;;;;;;;;;5008220;28;20554;-67
2023/12/16 11:38:08;;;;;;;7.40;2.28;;;;;;;;;;5009069;28;20088;-67
2023/12/16 11:40:52;;;;;;;9.55;2.83;;;;;;;;;;5007537;28;20517;-67
2023/12/16 11:43:18;;;;;;;9.40;2.53;;;;;;;;;;5022232;28;20476;-69
2023/12/16 11:45:44;;;;;;;8.85;2.03;;;;;;;;;;5009351;28;20033;-67
2023/12/16 11:48:11;;;;;;;13.35;2.03;;;;;;;;;;4992264;28;20390;-66
2023/12/16 11:50:37;;;;;;;7.38;1.80;;;;;;;;;;5003784;28;20021;-68
2023/12/16 11:53:03;;;;;;;7.13;2.28;;;;;;;;;;5014424;28;20021;-66
2023/12/16 11:55:28;;;;;;;10.98;2.45;;;;;;;;;;5008564;28;20392;-68
2023/12/16 11:57:53;;;;;;;4.43;1.88;;;;;;;;;;5011861;28;20034;-68
2023/12/16 12:00:19;;;;;;;7.17;2.33;;;;;;;;;;5009213;28;20436;-68
2023/12/16 12:02:45;;;;;;;6.10;1.98;;;;;;;;;;5012974;28;21310;-67
2023/12/16 12:05:14;;;;;;;8.70;2.35;;;;;;;;;;5012007;28;20831;-67
2023/12/16 12:07:39;;;;;;;5.85;1.70;;;;;;;;;;4998460;28;20025;-66
2023/12/16 12:10:05;;;;;;;9.57;3.28;;;;;;;;;;5003094;28;20038;-67
2023/12/16 12:12:30;;;;;;;7.72;2.38;;;;;;;;;;5017065;28;20144;-67
2023/12/16 12:14:55;;;;;;;9.07;2.20;;;;;;;;;;5004837;28;20026;-67
2023/12/16 12:17:21;;;;;;;9.50;3.03;;;;;;;;;;5012571;28;20472;-67
2023/12/16 12:19:47;;;;;;;7.88;2.42;;;;;;;;;;5016393;28;20295;-67
2023/12/16 12:22:12;;;;;;;9.27;2.60;;;;;;;;;;5002687;28;20034;-67
2023/12/16 12:24:37;;;;;;;8.07;2.78;;;;;;;;;;5021699;28;20041;-67
2023/12/16 12:27:03;;;;;;;7.97;1.92;;;;;;;;;;5011742;28;20025;-67
2023/12/16 12:29:48;;;;;;;7.50;2.65;;;;;;;;;;5008487;28;20025;-67
2023/12/16 12:32:14;;;;;;;10.60;2.63;;;;;;;;;;5005789;28;20087;-69
2023/12/16 12:34:40;;;;;;;5.45;2.33;;;;;;;;;;5003998;28;20077;-69
2023/12/16 12:37:05;;;;;;;7.00;2.60;;;;;;;;;;5015037;28;20080;-67
2023/12/16 12:39:30;;;;;;;9.55;2.88;;;;;;;;;;5006685;28;20129;-69
2023/12/16 12:41:59;;;;;;;7.50;2.43;;;;;;;;;;5002804;28;20869;-66
2023/12/16 12:44:24;;;;;;;8.68;2.53;;;;;;;;;;4998434;28;20359;-68
2023/12/16 12:46:50;;;;;;;9.70;2.40;;;;;;;;;;5004869;28;20136;-68
2023/12/16 12:49:16;;;;;;;8.07;2.80;;;;;;;;;;5010332;28;20481;-67
2023/12/16 12:51:48;;;;;;;6.88;2.78;;;;;;;;;;5012888;28;20120;-67
2023/12/16 12:54:13;;;;;;;12.90;2.65;;;;;;;;;;5018992;28;20095;-67
2023/12/16 12:56:39;;;;;;;8.67;2.30;;;;;;;;;;5002575;28;20472;-66
2023/12/16 12:59:04;;;;;;;11.88;2.78;;;;;;;;;;4998608;28;20774;-67
2023/12/16 13:01:29;;;;;;;14.77;2.93;;;;;;;;;;5005381;28;20746;-67
2023/12/16 13:03:54;;;;;;;8.10;2.47;;;;;;;;;;5012056;28;20988;-66
2023/12/16 13:06:19;;;;;;;9.97;2.23;;;;;;;;;;5020810;28;20829;-67
2023/12/16 13:08:45;;;;;;;9.57;2.88;;;;;;;;;;5008862;28;20620;-66
2023/12/16 13:11:10;;;;;;;9.85;2.60;;;;;;;;;;5014661;28;20026;-67
2023/12/16 13:13:35;;;;;;;8.57;2.92;;;;;;;;;;5004314;28;20041;-67
2023/12/16 13:16:01;;;;;;;7.95;3.15;;;;;;;;;;5003182;28;20157;-67
2023/12/16 13:18:26;;;;;;;8.98;3.58;;;;;;;;;;5001198;28;20033;-67
2023/12/16 13:20:51;;;;;;;11.10;3.42;;;;;;;;;;4999261;28;20087;-67
2023/12/16 13:23:16;;;;;;;6.97;2.57;;;;;;;;;;5005066;28;20479;-67
2023/12/16 13:25:42;;;;;;;9.60;2.92;;;;;;;;;;5003809;28;21097;-67
2023/12/16 13:28:07;;;;;;;10.43;2.95;;;;;;;;;;5013792;28;20060;-67
2023/12/16 13:30:33;;;;;;;12.85;3.10;;;;;;;;;;5003830;28;20029;-67
2023/12/16 13:32:59;;;;;;;11.45;2.83;;;;;;;;;;5007072;28;20026;-67
2023/12/16 13:35:24;;;;;;;7.18;2.70;;;;;;;;;;4993883;28;20037;-66
2023/12/16 13:37:49;;;;;;;4.93;2.65;;;;;;;;;;5018234;28;20444;-67
2023/12/16 13:40:15;;;;;;;7.75;3.33;;;;;;;;;;5006021;28;20026;-66
2023/12/16 13:42:40;;;;;;;13.63;3.75;;;;;;;;;;5009495;28;20511;-63
2023/12/16 13:45:06;;;;;;;6.30;2.90;;;;;;;;;;5030208;28;20483;-65
2023/12/16 13:47:31;;;;;;;6.45;2.88;;;;;;;;;;5011166;28;20120;-66
2023/12/16 13:49:56;;;;;;;8.55;2.78;;;;;;;;;;5005391;28;20030;-67
2023/12/16 13:52:21;;;;;;;10.70;3.55;;;;;;;;;;5011892;28;20038;-66
2023/12/16 13:54:47;;;;;;;6.70;2.87;;;;;;;;;;5015331;28;20439;-66
2023/12/16 13:57:12;;;;;;;8.43;3.23;;;;;;;;;;5015535;28;20677;-65
2023/12/16 13:59:38;;;;;;;12.18;3.10;;;;;;;;;;5014961;28;20382;-66
2023/12/16 14:02:03;;;;;;;8.40;2.57;;;;;;;;;;5023302;28;20061;-67
2023/12/16 14:04:28;;;;;;;8.10;3.08;;;;;;;;;;5011315;28;20355;-67
2023/12/16 14:06:54;;;;;;;9.90;3.38;;;;;;;;;;5003067;28;20079;-67
2023/12/16 14:09:19;;;;;;;6.72;2.80;;;;;;;;;;5004862;28;20563;-67
2023/12/16 14:11:44;;;;;;;12.30;3.55;;;;;;;;;;5009136;28;20033;-67
2023/12/16 14:14:10;;;;;;;17.17;3.47;;;;;;;;;;5008389;28;20105;-66
2023/12/16 14:16:35;;;;;;;14.70;3.35;;;;;;;;;;5008896;28;20041;-68
2023/12/16 14:19:01;;;;;;;5.10;2.67;;;;;;;;;;5005604;28;20044;-67
2023/12/16 14:21:26;;;;;;;9.57;3.55;;;;;;;;;;5002480;28;20030;-64
2023/12/16 14:23:51;;;;;;;15.93;3.57;;;;;;;;;;4999536;28;20037;-67
2023/12/16 14:26:16;;;;;;;8.30;3.22;;;;;;;;;;4996097;28;20296;-67
2023/12/16 14:28:42;;;;;;;10.68;3.55;;;;;;;;;;5010207;28;20036;-60
2023/12/16 14:31:07;;;;;;;7.40;2.40;;;;;;;;;;5013005;28;20045;-62